sensor_id;sensor_type;location;lat;lon;timestamp;temperature;humidity
13205;DHT22;6667;52.634;9.226;2022-10-16T07:05:26;13.50;99.90
13205;DHT22;6667;52.634;9.226;2022-10-16T07:07:53;13.50;99.90
13205;DHT22;6667;52.634;9.226;2022-10-16T07:10:19;13.50;99.90
13205;DHT22;6667;52.634;9.226;2022-10-16T07:12:49;13.50;99.90
13205;DHT22;6667;52.634;9.226;2022-10-16T07:15:16;13.50;99.90
13205;DHT22;6667;52.634;9.226;2022-10-16T07:17:42;13.60;99.90
13205;DHT22;6667;52.634;9.226;2022-10-16T07:20:09;13.70;99.90
13205;DHT22;6667;52.634;9.226;2022-10-16T07:22:37;13.80;99.90
13205;DHT22;6667;52.634;9.226;2022-10-16T07:25:05;13.80;99.90
13205;DHT22;6667;52.634;9.226;2022-10-16T07:27:32;13.90;99.90
13205;DHT22;6667;52.634;9.226;2022-10-16T07:29:59;13.90;99.90
13205;DHT22;6667;52.634;9.226;2022-10-16T07:32:26;14.00;99.90
13205;DHT22;6667;52.634;9.226;2022-10-16T07:34:53;13.90;99.90
13205;DHT22;6667;52.634;9.226;2022-10-16T07:37:21;13.90;99.90
13205;DHT22;6667;52.634;9.226;2022-10-16T07:39:49;13.90;99.90
13205;DHT22;6667;52.634;9.226;2022-10-16T07:42:16;13.90;99.90
13205;DHT22;6667;52.634;9.226;2022-10-16T07:44:42;13.90;99.90
13205;DHT22;6667;52.634;9.226;2022-10-16T07:47:09;13.90;99.90
13205;DHT22;6667;52.634;9.226;2022-10-16T07:49:36;13.80;99.90
13205;DHT22;6667;52.634;9.226;2022-10-16T07:52:03;13.80;99.90
13205;DHT22;6667;52.634;9.226;2022-10-16T07:54:29;13.90;99.90
13205;DHT22;6667;52.634;9.226;2022-10-16T07:56:57;14.00;99.90
13205;DHT22;6667;52.634;9.226;2022-10-16T07:59:24;14.00;99.90
13205;DHT22;6667;52.634;9.226;2022-10-16T08:01:51;14.10;99.90
13205;DHT22;6667;52.634;9.226;2022-10-16T08:04:17;14.30;99.90
13205;DHT22;6667;52.634;9.226;2022-10-16T08:06:44;14.40;99.90
13205;DHT22;6667;52.634;9.226;2022-10-16T08:09:11;14.70;99.90
13205;DHT22;6667;52.634;9.226;2022-10-16T08:11:37;15.10;99.90
13205;DHT22;6667;52.634;9.226;2022-10-16T08:14:06;15.70;99.90
13205;DHT22;6667;52.634;9.226;2022-10-16T08:16:32;16.00;99.90
13205;DHT22;6667;52.634;9.226;2022-10-16T08:18:59;16.40;99.90
13205;DHT22;6667;52.634;9.226;2022-10-16T08:21:26;16.60;99.90
13205;DHT22;6667;52.634;9.226;2022-10-16T08:23:53;16.90;99.90
13205;DHT22;6667;52.634;9.226;2022-10-16T08:26:20;17.20;99.90
13205;DHT22;6667;52.634;9.226;2022-10-16T08:28:49;17.20;99.90
13205;DHT22;6667;52.634;9.226;2022-10-16T08:31:17;17.50;99.90
13205;DHT22;6667;52.634;9.226;2022-10-16T08:33:45;17.40;99.90
13205;DHT22;6667;52.634;9.226;2022-10-16T08:36:13;16.90;99.90
13205;DHT22;6667;52.634;9.226;2022-10-16T08:38:39;16.60;99.90
13205;DHT22;6667;52.634;9.226;2022-10-16T08:41:28;16.80;99.90
13205;DHT22;6667;52.634;9.226;2022-10-16T08:44:13;17.30;99.90
13205;DHT22;6667;52.634;9.226;2022-10-16T08:46:51;17.50;99.90
13205;DHT22;6667;52.634;9.226;2022-10-16T08:49:21;17.60;99.90
13205;DHT22;6667;52.634;9.226;2022-10-16T08:51:50;17.90;99.90
13205;DHT22;6667;52.634;9.226;2022-10-16T08:54:25;18.30;99.90
13205;DHT22;6667;52.634;9.226;2022-10-16T08:56:54;18.60;99.90
13205;DHT22;6667;52.634;9.226;2022-10-16T08:59:22;18.60;99.90
13205;DHT22;6667;52.634;9.226;2022-10-16T09:01:52;18.60;99.90
13205;DHT22;6667;52.634;9.226;2022-10-16T09:04:42;18.80;99.90
13205;DHT22;6667;52.634;9.226;2022-10-16T09:07:18;19.00;99.90
13205;DHT22;6667;52.634;9.226;2022-10-16T09:10:02;19.00;99.90
13205;DHT22;6667;52.634;9.226;2022-10-16T09:12:37;19.00;99.90
13205;DHT22;6667;52.634;9.226;2022-10-16T09:15:14;19.20;99.90
13205;DHT22;6667;52.634;9.226;2022-10-16T09:17:52;19.30;99.90
13205;DHT22;6667;52.634;9.226;2022-10-16T09:20:39;19.60;99.90
13205;DHT22;6667;52.634;9.226;2022-10-16T09:23:14;19.70;99.90
13205;DHT22;6667;52.634;9.226;2022-10-16T09:25:43;19.50;99.90
13205;DHT22;6667;52.634;9.226;2022-10-16T09:28:11;19.90;99.90
13205;DHT22;6667;52.634;9.226;2022-10-16T09:30:38;20.20;99.90
13205;DHT22;6667;52.634;9.226;2022-10-16T09:33:08;20.00;99.90
13205;DHT22;6667;52.634;9.226;2022-10-16T09:35:38;20.00;99.90
13205;DHT22;6667;52.634;9.226;2022-10-16T09:38:06;20.10;99.90
13205;DHT22;6667;52.634;9.226;2022-10-16T09:40:35;20.00;99.90
13205;DHT22;6667;52.634;9.226;2022-10-16T09:43:12;20.00;99.90
13205;DHT22;6667;52.634;9.226;2022-10-16T09:45:40;19.90;99.90
13205;DHT22;6667;52.634;9.226;2022-10-16T09:48:12;19.60;99.90
13205;DHT22;6667;52.634;9.226;2022-10-16T09:50:55;19.60;99.90
13205;DHT22;6667;52.634;9.226;2022-10-16T09:53:22;19.40;99.90
13205;DHT22;6667;52.634;9.226;2022-10-16T09:55:50;19.30;99.90
13205;DHT22;6667;52.634;9.226;2022-10-16T09:58:17;19.50;99.90
13205;DHT22;6667;52.634;9.226;2022-10-16T10:00:49;20.00;99.90
13205;DHT22;6667;52.634;9.226;2022-10-16T10:03:30;20.50;99.90
13205;DHT22;6667;52.634;9.226;2022-10-16T10:06:00;20.50;99.90
13205;DHT22;6667;52.634;9.226;2022-10-16T10:08:27;20.20;99.90
13205;DHT22;6667;52.634;9.226;2022-10-16T10:10:54;20.60;99.90
13205;DHT22;6667;52.634;9.226;2022-10-16T10:13:22;20.70;99.90
13205;DHT22;6667;52.634;9.226;2022-10-16T10:15:51;20.70;99.90
13205;DHT22;6667;52.634;9.226;2022-10-16T10:18:20;20.60;99.90
13205;DHT22;6667;52.634;9.226;2022-10-16T10:20:59;21.00;99.90
13205;DHT22;6667;52.634;9.226;2022-10-16T10:23:28;21.20;99.90
13205;DHT22;6667;52.634;9.226;2022-10-16T10:26:02;21.30;99.90
13205;DHT22;6667;52.634;9.226;2022-10-16T10:28:47;20.90;99.90
13205;DHT22;6667;52.634;9.226;2022-10-16T10:31:22;21.30;99.90
13205;DHT22;6667;52.634;9.226;2022-10-16T10:33:54;21.40;99.90
13205;DHT22;6667;52.634;9.226;2022-10-16T10:36:32;21.30;99.90
13205;DHT22;6667;52.634;9.226;2022-10-16T10:39:02;21.50;99.90
13205;DHT22;6667;52.634;9.226;2022-10-16T10:42:04;21.10;99.90
13205;DHT22;6667;52.634;9.226;2022-10-16T10:44:51;21.10;99.90
13205;DHT22;6667;52.634;9.226;2022-10-16T10:47:29;21.30;99.90
13205;DHT22;6667;52.634;9.226;2022-10-16T10:50:07;21.30;99.90
13205;DHT22;6667;52.634;9.226;2022-10-16T10:52:53;21.30;99.90
13205;DHT22;6667;52.634;9.226;2022-10-16T10:55:31;21.10;99.90
13205;DHT22;6667;52.634;9.226;2022-10-16T10:58:14;20.60;99.90
13205;DHT22;6667;52.634;9.226;2022-10-16T11:00:48;20.40;99.90
13205;DHT22;6667;52.634;9.226;2022-10-16T11:03:30;20.40;99.90
13205;DHT22;6667;52.634;9.226;2022-10-16T11:06:00;20.40;99.90
13205;DHT22;6667;52.634;9.226;2022-10-16T11:08:36;20.30;99.90
13205;DHT22;6667;52.634;9.226;2022-10-16T11:11:09;20.00;99.90
13205;DHT22;6667;52.634;9.226;2022-10-16T11:13:41;20.30;99.90
13205;DHT22;6667;52.634;9.226;2022-10-16T11:16:14;20.10;99.90
13205;DHT22;6667;52.634;9.226;2022-10-16T11:18:48;20.20;99.90
13205;DHT22;6667;52.634;9.226;2022-10-16T11:21:18;20.10;99.90
13205;DHT22;6667;52.634;9.226;2022-10-16T11:23:53;19.80;99.90
13205;DHT22;6667;52.634;9.226;2022-10-16T11:26:26;20.10;99.90
13205;DHT22;6667;52.634;9.226;2022-10-16T11:28:55;20.50;99.90
13205;DHT22;6667;52.634;9.226;2022-10-16T11:31:28;20.50;99.90
13205;DHT22;6667;52.634;9.226;2022-10-16T11:34:02;21.00;99.90
13205;DHT22;6667;52.634;9.226;2022-10-16T11:36:34;20.80;99.90
13205;DHT22;6667;52.634;9.226;2022-10-16T11:39:10;21.10;99.90
13205;DHT22;6667;52.634;9.226;2022-10-16T11:41:44;21.20;99.90
13205;DHT22;6667;52.634;9.226;2022-10-16T11:44:23;21.10;99.90
13205;DHT22;6667;52.634;9.226;2022-10-16T11:47:01;21.10;99.90
13205;DHT22;6667;52.634;9.226;2022-10-16T11:49:32;21.40;99.90
13205;DHT22;6667;52.634;9.226;2022-10-16T11:52:13;20.90;99.90
13205;DHT22;6667;52.634;9.226;2022-10-16T11:54:47;20.70;99.90
13205;DHT22;6667;52.634;9.226;2022-10-16T11:57:19;20.50;99.90
13205;DHT22;6667;52.634;9.226;2022-10-16T11:59:48;20.80;99.90
13205;DHT22;6667;52.634;9.226;2022-10-16T12:02:35;20.90;99.90
13205;DHT22;6667;52.634;9.226;2022-10-16T12:05:14;21.40;99.90
13205;DHT22;6667;52.634;9.226;2022-10-16T12:07:48;21.30;99.90
13205;DHT22;6667;52.634;9.226;2022-10-16T12:10:24;21.40;99.90
13205;DHT22;6667;52.634;9.226;2022-10-16T12:12:51;21.00;99.90
13205;DHT22;6667;52.634;9.226;2022-10-16T12:15:21;20.80;99.90
13205;DHT22;6667;52.634;9.226;2022-10-16T12:17:48;20.40;99.90
13205;DHT22;6667;52.634;9.226;2022-10-16T12:20:25;20.30;99.90
13205;DHT22;6667;52.634;9.226;2022-10-16T12:22:54;20.30;99.90
13205;DHT22;6667;52.634;9.226;2022-10-16T12:25:26;20.40;99.90
13205;DHT22;6667;52.634;9.226;2022-10-16T12:27:55;20.40;99.90
13205;DHT22;6667;52.634;9.226;2022-10-16T12:30:24;20.30;99.90
13205;DHT22;6667;52.634;9.226;2022-10-16T12:32:56;20.50;99.90
13205;DHT22;6667;52.634;9.226;2022-10-16T12:35:27;20.20;99.90
13205;DHT22;6667;52.634;9.226;2022-10-16T12:38:05;20.00;99.90
13205;DHT22;6667;52.634;9.226;2022-10-16T12:40:36;20.00;99.90
13205;DHT22;6667;52.634;9.226;2022-10-16T12:43:27;19.90;99.90
13205;DHT22;6667;52.634;9.226;2022-10-16T12:46:03;20.20;99.90
13205;DHT22;6667;52.634;9.226;2022-10-16T12:48:30;20.60;99.90
13205;DHT22;6667;52.634;9.226;2022-10-16T12:50:57;20.60;99.90
13205;DHT22;6667;52.634;9.226;2022-10-16T12:53:35;20.50;99.90
13205;DHT22;6667;52.634;9.226;2022-10-16T12:56:11;20.70;99.90
13205;DHT22;6667;52.634;9.226;2022-10-16T12:58:54;20.90;99.90
13205;DHT22;6667;52.634;9.226;2022-10-16T13:01:34;21.10;99.90
13205;DHT22;6667;52.634;9.226;2022-10-16T13:10:12;21.60;99.90
13205;DHT22;6667;52.634;9.226;2022-10-16T13:13:02;21.50;99.90
13205;DHT22;6667;52.634;9.226;2022-10-16T13:15:47;21.40;99.90
13205;DHT22;6667;52.634;9.226;2022-10-16T13:18:22;21.00;99.90
13205;DHT22;6667;52.634;9.226;2022-10-16T13:21:06;20.80;99.90
13205;DHT22;6667;52.634;9.226;2022-10-16T13:23:42;20.80;99.90
13205;DHT22;6667;52.634;9.226;2022-10-16T13:26:18;20.70;99.90
13205;DHT22;6667;52.634;9.226;2022-10-16T13:28:50;20.90;99.90
13205;DHT22;6667;52.634;9.226;2022-10-16T13:31:19;20.90;99.90
13205;DHT22;6667;52.634;9.226;2022-10-16T13:33:49;20.90;99.90
13205;DHT22;6667;52.634;9.226;2022-10-16T13:36:20;20.90;99.90
13205;DHT22;6667;52.634;9.226;2022-10-16T13:38:47;21.00;99.90
13205;DHT22;6667;52.634;9.226;2022-10-16T13:41:15;20.80;99.90
13205;DHT22;6667;52.634;9.226;2022-10-16T13:43:44;21.00;99.90
13205;DHT22;6667;52.634;9.226;2022-10-16T13:46:15;21.20;99.90
13205;DHT22;6667;52.634;9.226;2022-10-16T13:48:42;21.40;99.90
13205;DHT22;6667;52.634;9.226;2022-10-16T13:51:13;21.20;99.90
13205;DHT22;6667;52.634;9.226;2022-10-16T13:53:41;20.80;99.90
13205;DHT22;6667;52.634;9.226;2022-10-16T13:56:11;20.60;99.90
13205;DHT22;6667;52.634;9.226;2022-10-16T13:58:38;20.70;99.90
13205;DHT22;6667;52.634;9.226;2022-10-16T14:01:14;20.80;99.90
13205;DHT22;6667;52.634;9.226;2022-10-16T14:03:42;20.80;99.90
13205;DHT22;6667;52.634;9.226;2022-10-16T14:06:12;20.70;99.90
13205;DHT22;6667;52.634;9.226;2022-10-16T14:08:43;20.60;99.90
13205;DHT22;6667;52.634;9.226;2022-10-16T14:11:10;20.40;99.90
13205;DHT22;6667;52.634;9.226;2022-10-16T14:13:39;20.30;99.90
13205;DHT22;6667;52.634;9.226;2022-10-16T14:16:09;20.30;99.90
13205;DHT22;6667;52.634;9.226;2022-10-16T14:18:38;20.40;99.90
13205;DHT22;6667;52.634;9.226;2022-10-16T14:21:07;20.50;99.90
13205;DHT22;6667;52.634;9.226;2022-10-16T14:23:39;20.20;99.90
13205;DHT22;6667;52.634;9.226;2022-10-16T14:26:13;20.00;99.90
13205;DHT22;6667;52.634;9.226;2022-10-16T14:28:41;20.00;99.90
13205;DHT22;6667;52.634;9.226;2022-10-16T14:31:25;20.00;99.90
13205;DHT22;6667;52.634;9.226;2022-10-16T14:33:53;20.10;99.90
13205;DHT22;6667;52.634;9.226;2022-10-16T14:36:21;20.10;99.90
13205;DHT22;6667;52.634;9.226;2022-10-16T14:38:51;20.00;99.90
13205;DHT22;6667;52.634;9.226;2022-10-16T14:41:21;20.00;99.90
13205;DHT22;6667;52.634;9.226;2022-10-16T14:43:50;19.70;99.90
13205;DHT22;6667;52.634;9.226;2022-10-16T14:46:22;19.60;99.90
13205;DHT22;6667;52.634;9.226;2022-10-16T14:48:56;19.50;99.90
13205;DHT22;6667;52.634;9.226;2022-10-16T14:51:25;19.60;99.90
13205;DHT22;6667;52.634;9.226;2022-10-16T14:53:52;19.60;99.90
13205;DHT22;6667;52.634;9.226;2022-10-16T14:56:20;19.60;99.90
13205;DHT22;6667;52.634;9.226;2022-10-16T14:58:48;19.60;99.90
13205;DHT22;6667;52.634;9.226;2022-10-16T15:01:16;19.50;99.90
13205;DHT22;6667;52.634;9.226;2022-10-16T15:03:43;19.50;99.90
13205;DHT22;6667;52.634;9.226;2022-10-16T15:06:12;19.50;99.90
13205;DHT22;6667;52.634;9.226;2022-10-16T15:08:38;19.50;99.90
13205;DHT22;6667;52.634;9.226;2022-10-16T15:11:08;19.50;99.90
13205;DHT22;6667;52.634;9.226;2022-10-16T15:13:37;19.40;99.90
13205;DHT22;6667;52.634;9.226;2022-10-16T15:16:04;19.40;99.90
13205;DHT22;6667;52.634;9.226;2022-10-16T15:18:31;19.40;99.90
13205;DHT22;6667;52.634;9.226;2022-10-16T15:20:58;19.30;99.90
13205;DHT22;6667;52.634;9.226;2022-10-16T15:23:26;19.20;99.90
13205;DHT22;6667;52.634;9.226;2022-10-16T15:25:54;19.10;99.90
13205;DHT22;6667;52.634;9.226;2022-10-16T15:28:23;19.00;99.90
13205;DHT22;6667;52.634;9.226;2022-10-16T15:30:51;18.90;99.90
13205;DHT22;6667;52.634;9.226;2022-10-16T15:33:20;18.80;99.90
13205;DHT22;6667;52.634;9.226;2022-10-16T15:35:48;18.80;99.90
13205;DHT22;6667;52.634;9.226;2022-10-16T15:38:17;18.70;99.90
13205;DHT22;6667;52.634;9.226;2022-10-16T15:40:45;18.70;99.90
13205;DHT22;6667;52.634;9.226;2022-10-16T15:43:12;18.60;99.90
13205;DHT22;6667;52.634;9.226;2022-10-16T15:45:39;18.50;99.90
13205;DHT22;6667;52.634;9.226;2022-10-16T15:48:06;18.40;99.90
13205;DHT22;6667;52.634;9.226;2022-10-16T15:50:33;18.40;99.90
13205;DHT22;6667;52.634;9.226;2022-10-16T15:52:59;18.30;99.90
13205;DHT22;6667;52.634;9.226;2022-10-16T15:55:26;18.40;99.90
13205;DHT22;6667;52.634;9.226;2022-10-16T15:57:54;18.30;99.90
13205;DHT22;6667;52.634;9.226;2022-10-16T16:00:21;18.20;99.90
13205;DHT22;6667;52.634;9.226;2022-10-16T16:02:50;18.20;99.90
13205;DHT22;6667;52.634;9.226;2022-10-16T16:05:18;18.10;99.90
13205;DHT22;6667;52.634;9.226;2022-10-16T16:07:45;18.00;99.90
13205;DHT22;6667;52.634;9.226;2022-10-16T16:10:12;17.80;99.90
13205;DHT22;6667;52.634;9.226;2022-10-16T16:12:39;17.70;99.90
13205;DHT22;6667;52.634;9.226;2022-10-16T16:15:09;17.60;99.90
13205;DHT22;6667;52.634;9.226;2022-10-16T16:17:36;17.50;99.90
13205;DHT22;6667;52.634;9.226;2022-10-16T16:20:04;17.50;99.90
13205;DHT22;6667;52.634;9.226;2022-10-16T16:22:31;17.40;99.90
13205;DHT22;6667;52.634;9.226;2022-10-16T16:24:58;17.30;99.90
13205;DHT22;6667;52.634;9.226;2022-10-16T16:27:24;17.20;99.90
13205;DHT22;6667;52.634;9.226;2022-10-16T16:29:51;17.10;99.90
13205;DHT22;6667;52.634;9.226;2022-10-16T16:32:20;17.00;99.90
13205;DHT22;6667;52.634;9.226;2022-10-16T16:34:46;17.00;99.90
13205;DHT22;6667;52.634;9.226;2022-10-16T16:37:13;16.90;99.90
13205;DHT22;6667;52.634;9.226;2022-10-16T16:39:40;16.90;99.90
13205;DHT22;6667;52.634;9.226;2022-10-16T16:42:07;16.70;99.90
13205;DHT22;6667;52.634;9.226;2022-10-16T16:44:35;16.70;99.90
13205;DHT22;6667;52.634;9.226;2022-10-16T16:47:02;16.60;99.90
13205;DHT22;6667;52.634;9.226;2022-10-16T16:49:30;16.40;99.90
13205;DHT22;6667;52.634;9.226;2022-10-16T16:51:57;16.30;99.90
13205;DHT22;6667;52.634;9.226;2022-10-16T16:54:24;16.10;99.90
13205;DHT22;6667;52.634;9.226;2022-10-16T16:56:51;16.00;99.90
13205;DHT22;6667;52.634;9.226;2022-10-16T16:59:19;15.90;99.90
13205;DHT22;6667;52.634;9.226;2022-10-16T17:01:47;15.90;99.90
13205;DHT22;6667;52.634;9.226;2022-10-16T17:04:14;15.90;99.90
13205;DHT22;6667;52.634;9.226;2022-10-16T17:06:43;15.90;99.90
13205;DHT22;6667;52.634;9.226;2022-10-16T17:09:10;15.90;99.90
13205;DHT22;6667;52.634;9.226;2022-10-16T17:11:40;15.80;99.90
13205;DHT22;6667;52.634;9.226;2022-10-16T17:14:08;15.70;99.90
13205;DHT22;6667;52.634;9.226;2022-10-16T17:16:36;15.50;99.90
13205;DHT22;6667;52.634;9.226;2022-10-16T17:19:05;15.30;99.90
13205;DHT22;6667;52.634;9.226;2022-10-16T17:21:33;15.20;99.90
13205;DHT22;6667;52.634;9.226;2022-10-16T17:24:02;15.30;99.90
13205;DHT22;6667;52.634;9.226;2022-10-16T17:26:29;15.30;99.90
13205;DHT22;6667;52.634;9.226;2022-10-16T17:28:57;15.20;99.90
13205;DHT22;6667;52.634;9.226;2022-10-16T17:31:28;15.10;99.90
13205;DHT22;6667;52.634;9.226;2022-10-16T17:33:56;15.10;99.90
13205;DHT22;6667;52.634;9.226;2022-10-16T17:36:23;15.10;99.90
13205;DHT22;6667;52.634;9.226;2022-10-16T17:38:50;15.00;99.90
13205;DHT22;6667;52.634;9.226;2022-10-16T17:41:20;15.00;99.90
13205;DHT22;6667;52.634;9.226;2022-10-16T17:43:48;15.00;99.90
13205;DHT22;6667;52.634;9.226;2022-10-16T17:46:17;15.00;99.90
13205;DHT22;6667;52.634;9.226;2022-10-16T17:48:45;15.00;99.90
13205;DHT22;6667;52.634;9.226;2022-10-16T17:51:14;14.90;99.90
13205;DHT22;6667;52.634;9.226;2022-10-16T17:53:41;14.90;99.90
13205;DHT22;6667;52.634;9.226;2022-10-16T17:56:11;14.80;99.90
13205;DHT22;6667;52.634;9.226;2022-10-16T17:58:40;14.80;99.90
13205;DHT22;6667;52.634;9.226;2022-10-16T18:01:14;14.80;99.90
13205;DHT22;6667;52.634;9.226;2022-10-16T18:03:41;14.70;99.90
13205;DHT22;6667;52.634;9.226;2022-10-16T18:06:08;14.60;99.90
13205;DHT22;6667;52.634;9.226;2022-10-16T18:08:37;14.60;99.90
13205;DHT22;6667;52.634;9.226;2022-10-16T18:11:04;14.60;99.90
13205;DHT22;6667;52.634;9.226;2022-10-16T18:13:31;14.50;99.90
13205;DHT22;6667;52.634;9.226;2022-10-16T18:16:00;14.40;99.90
13205;DHT22;6667;52.634;9.226;2022-10-16T18:18:27;14.40;99.90
13205;DHT22;6667;52.634;9.226;2022-10-16T18:20:58;14.40;99.90
13205;DHT22;6667;52.634;9.226;2022-10-16T18:23:25;14.40;99.90
13205;DHT22;6667;52.634;9.226;2022-10-16T18:25:52;14.30;99.90
13205;DHT22;6667;52.634;9.226;2022-10-16T18:28:19;14.20;99.90
13205;DHT22;6667;52.634;9.226;2022-10-16T18:30:54;14.10;99.90
13205;DHT22;6667;52.634;9.226;2022-10-16T18:33:22;14.10;99.90
13205;DHT22;6667;52.634;9.226;2022-10-16T18:35:49;14.10;99.90
13205;DHT22;6667;52.634;9.226;2022-10-16T18:38:15;14.10;99.90
13205;DHT22;6667;52.634;9.226;2022-10-16T18:40:42;14.10;99.90
13205;DHT22;6667;52.634;9.226;2022-10-16T18:43:09;14.10;99.90
13205;DHT22;6667;52.634;9.226;2022-10-16T18:45:36;14.10;99.90
13205;DHT22;6667;52.634;9.226;2022-10-16T18:48:03;14.10;99.90
13205;DHT22;6667;52.634;9.226;2022-10-16T18:50:31;14.00;99.90
13205;DHT22;6667;52.634;9.226;2022-10-16T18:52:58;14.00;99.90
13205;DHT22;6667;52.634;9.226;2022-10-16T18:55:24;14.00;99.90
13205;DHT22;6667;52.634;9.226;2022-10-16T18:57:53;14.00;99.90
13205;DHT22;6667;52.634;9.226;2022-10-16T19:00:20;14.00;99.90
13205;DHT22;6667;52.634;9.226;2022-10-16T19:02:47;14.00;99.90
13205;DHT22;6667;52.634;9.226;2022-10-16T19:05:13;14.00;99.90
13205;DHT22;6667;52.634;9.226;2022-10-16T19:07:44;13.90;99.90
13205;DHT22;6667;52.634;9.226;2022-10-16T19:10:11;13.80;99.90
13205;DHT22;6667;52.634;9.226;2022-10-16T19:12:38;13.70;99.90
13205;DHT22;6667;52.634;9.226;2022-10-16T19:15:06;13.70;99.90
13205;DHT22;6667;52.634;9.226;2022-10-16T19:17:32;13.70;99.90
13205;DHT22;6667;52.634;9.226;2022-10-16T19:20:00;13.70;99.90
13205;DHT22;6667;52.634;9.226;2022-10-16T19:22:27;13.70;99.90
13205;DHT22;6667;52.634;9.226;2022-10-16T19:25:17;13.70;99.90
13205;DHT22;6667;52.634;9.226;2022-10-16T19:27:46;13.60;99.90
13205;DHT22;6667;52.634;9.226;2022-10-16T19:30:13;13.60;99.90
13205;DHT22;6667;52.634;9.226;2022-10-16T19:32:40;13.60;99.90
13205;DHT22;6667;52.634;9.226;2022-10-16T19:35:08;13.60;99.90
13205;DHT22;6667;52.634;9.226;2022-10-16T19:37:35;13.60;99.90
13205;DHT22;6667;52.634;9.226;2022-10-16T19:40:02;13.60;99.90
13205;DHT22;6667;52.634;9.226;2022-10-16T19:42:30;13.70;99.90
13205;DHT22;6667;52.634;9.226;2022-10-16T19:44:57;13.70;99.90
13205;DHT22;6667;52.634;9.226;2022-10-16T19:47:24;13.50;99.90
13205;DHT22;6667;52.634;9.226;2022-10-16T19:49:50;13.40;99.90
13205;DHT22;6667;52.634;9.226;2022-10-16T19:52:17;13.40;99.90
13205;DHT22;6667;52.634;9.226;2022-10-16T19:54:46;13.50;99.90
13205;DHT22;6667;52.634;9.226;2022-10-16T19:57:13;13.50;99.90
13205;DHT22;6667;52.634;9.226;2022-10-16T19:59:41;13.50;99.90
13205;DHT22;6667;52.634;9.226;2022-10-16T20:02:09;13.50;99.90
13205;DHT22;6667;52.634;9.226;2022-10-16T20:04:36;13.40;99.90
13205;DHT22;6667;52.634;9.226;2022-10-16T20:07:02;13.40;99.90
13205;DHT22;6667;52.634;9.226;2022-10-16T20:09:29;13.40;99.90
13205;DHT22;6667;52.634;9.226;2022-10-16T20:11:56;13.50;99.90
13205;DHT22;6667;52.634;9.226;2022-10-16T20:14:23;13.50;99.90
13205;DHT22;6667;52.634;9.226;2022-10-16T20:16:51;13.40;99.90
13205;DHT22;6667;52.634;9.226;2022-10-16T20:19:18;13.40;99.90
13205;DHT22;6667;52.634;9.226;2022-10-16T20:21:45;13.40;99.90
13205;DHT22;6667;52.634;9.226;2022-10-16T20:24:12;13.40;99.90
13205;DHT22;6667;52.634;9.226;2022-10-16T20:26:40;13.30;99.90
13205;DHT22;6667;52.634;9.226;2022-10-16T20:29:06;13.30;99.90
13205;DHT22;6667;52.634;9.226;2022-10-16T20:31:33;13.20;99.90
13205;DHT22;6667;52.634;9.226;2022-10-16T20:34:03;13.20;99.90
13205;DHT22;6667;52.634;9.226;2022-10-16T20:36:30;13.20;99.90
13205;DHT22;6667;52.634;9.226;2022-10-16T20:38:58;13.20;99.90
13205;DHT22;6667;52.634;9.226;2022-10-16T20:41:25;13.20;99.90
13205;DHT22;6667;52.634;9.226;2022-10-16T20:43:52;13.20;99.90
13205;DHT22;6667;52.634;9.226;2022-10-16T20:46:21;13.20;99.90
13205;DHT22;6667;52.634;9.226;2022-10-16T20:48:49;13.20;99.90
13205;DHT22;6667;52.634;9.226;2022-10-16T20:51:19;13.20;99.90
13205;DHT22;6667;52.634;9.226;2022-10-16T20:53:48;13.10;99.90
13205;DHT22;6667;52.634;9.226;2022-10-16T20:56:17;13.10;99.90
13205;DHT22;6667;52.634;9.226;2022-10-16T20:58:44;13.10;99.90
13205;DHT22;6667;52.634;9.226;2022-10-16T21:01:14;13.20;99.90
13205;DHT22;6667;52.634;9.226;2022-10-16T21:03:41;13.20;99.90
13205;DHT22;6667;52.634;9.226;2022-10-16T21:06:09;13.20;99.90
13205;DHT22;6667;52.634;9.226;2022-10-16T21:08:39;13.20;99.90
13205;DHT22;6667;52.634;9.226;2022-10-16T21:11:12;13.20;99.90
13205;DHT22;6667;52.634;9.226;2022-10-16T21:13:39;13.30;99.90
13205;DHT22;6667;52.634;9.226;2022-10-16T21:16:06;13.30;99.90
13205;DHT22;6667;52.634;9.226;2022-10-16T21:18:32;13.30;99.90
13205;DHT22;6667;52.634;9.226;2022-10-16T21:20:59;13.40;99.90
13205;DHT22;6667;52.634;9.226;2022-10-16T21:23:26;13.40;99.90
13205;DHT22;6667;52.634;9.226;2022-10-16T21:25:54;13.40;99.90
13205;DHT22;6667;52.634;9.226;2022-10-16T21:28:21;13.40;99.90
13205;DHT22;6667;52.634;9.226;2022-10-16T21:30:47;13.40;99.90
13205;DHT22;6667;52.634;9.226;2022-10-16T21:33:14;13.50;99.90
13205;DHT22;6667;52.634;9.226;2022-10-16T21:35:41;13.50;99.90
13205;DHT22;6667;52.634;9.226;2022-10-16T21:38:08;13.50;99.90
13205;DHT22;6667;52.634;9.226;2022-10-16T21:40:35;13.50;99.90
13205;DHT22;6667;52.634;9.226;2022-10-16T21:43:03;13.60;99.90
13205;DHT22;6667;52.634;9.226;2022-10-16T21:45:30;13.60;99.90
13205;DHT22;6667;52.634;9.226;2022-10-16T21:47:56;13.60;99.90
13205;DHT22;6667;52.634;9.226;2022-10-16T21:50:23;13.50;99.90
13205;DHT22;6667;52.634;9.226;2022-10-16T21:52:50;13.50;99.90
13205;DHT22;6667;52.634;9.226;2022-10-16T21:55:17;13.50;99.90
13205;DHT22;6667;52.634;9.226;2022-10-16T21:57:43;13.50;99.90
13205;DHT22;6667;52.634;9.226;2022-10-16T22:00:12;13.50;99.90
13205;DHT22;6667;52.634;9.226;2022-10-16T22:02:41;13.40;99.90
13205;DHT22;6667;52.634;9.226;2022-10-16T22:05:07;13.40;99.90
13205;DHT22;6667;52.634;9.226;2022-10-16T22:07:34;13.40;99.90
13205;DHT22;6667;52.634;9.226;2022-10-16T22:10:01;13.40;99.90
13205;DHT22;6667;52.634;9.226;2022-10-16T22:12:28;13.40;99.90
13205;DHT22;6667;52.634;9.226;2022-10-16T22:14:55;13.40;99.90
13205;DHT22;6667;52.634;9.226;2022-10-16T22:17:23;13.40;99.90
13205;DHT22;6667;52.634;9.226;2022-10-16T22:19:49;13.40;99.90
13205;DHT22;6667;52.634;9.226;2022-10-16T22:22:16;13.40;99.90
13205;DHT22;6667;52.634;9.226;2022-10-16T22:24:43;13.40;99.90
13205;DHT22;6667;52.634;9.226;2022-10-16T22:27:09;13.40;99.90
13205;DHT22;6667;52.634;9.226;2022-10-16T22:29:36;13.50;99.90
13205;DHT22;6667;52.634;9.226;2022-10-16T22:32:03;13.40;99.90
13205;DHT22;6667;52.634;9.226;2022-10-16T22:34:31;13.40;99.90
13205;DHT22;6667;52.634;9.226;2022-10-16T22:36:58;13.30;99.90
13205;DHT22;6667;52.634;9.226;2022-10-16T22:39:24;13.20;99.90
13205;DHT22;6667;52.634;9.226;2022-10-16T22:41:52;13.30;99.90
13205;DHT22;6667;52.634;9.226;2022-10-16T22:44:19;13.30;99.90
13205;DHT22;6667;52.634;9.226;2022-10-16T22:46:46;13.30;99.90
13205;DHT22;6667;52.634;9.226;2022-10-16T22:49:12;13.40;99.90
13205;DHT22;6667;52.634;9.226;2022-10-16T22:51:43;13.40;99.90
13205;DHT22;6667;52.634;9.226;2022-10-16T22:54:09;13.40;99.90
13205;DHT22;6667;52.634;9.226;2022-10-16T22:56:36;13.40;99.90
13205;DHT22;6667;52.634;9.226;2022-10-16T22:59:03;13.40;99.90
13205;DHT22;6667;52.634;9.226;2022-10-16T23:01:33;13.30;99.90
13205;DHT22;6667;52.634;9.226;2022-10-16T23:04:00;13.20;99.90
13205;DHT22;6667;52.634;9.226;2022-10-16T23:06:27;13.30;99.90
13205;DHT22;6667;52.634;9.226;2022-10-16T23:08:56;13.30;99.90
13205;DHT22;6667;52.634;9.226;2022-10-16T23:11:24;13.30;99.90